Flight Track Log - Related Links

Times and Time Zones

All times are in EDT time to prevent confusion due to time zone crossing. See the KLM897 flight status page for this flight to view local times or setup timezone preferences in your user account.


Time Position Orientation Groundspeed Altitude Reporting Facility
EDT Latitude Longitude Course Direction KTS MPH feet Rate Location/Type
Sat 12:01:15 PM 53.6458 7.4100 51° Northeast  Level Estimated
Sat 12:02:15 PM 53.7262 7.5782 51° Northeast  Level Estimated
Sat 12:03:15 PM 53.8063 7.7471 51° Northeast  Level Estimated
Sat 12:04:15 PM 53.8861 7.9167 51° Northeast  Level Estimated
Sat 12:05:15 PM 53.9657 8.0869 52° Northeast  Level Estimated
Sat 12:06:15 PM 54.0451 8.2577 52° Northeast  Level Estimated
Sat 12:07:15 PM 54.1242 8.4292 52° Northeast  Level Estimated
Sat 12:08:15 PM 54.2031 8.6013 52° Northeast  Level Estimated
Sat 12:09:15 PM 54.2818 8.7741 52° Northeast  Level Estimated
Sat 12:10:15 PM 54.3601 8.9476 52° Northeast  Level Estimated
Sat 12:11:15 PM 54.4383 9.1217 52° Northeast  Level Estimated
Sat 12:12:15 PM 54.5162 9.2965 53° Northeast  Level Estimated
Sat 12:13:15 PM 54.5938 9.4720 53° Northeast  Level Estimated
Sat 12:14:15 PM 54.6712 9.6481 53° Northeast  Level Estimated
Sat 12:15:15 PM 54.7483 9.8249 53° Northeast  Level Estimated
Sat 12:16:15 PM 54.8252 10.0024 53° Northeast  Level Estimated
Sat 12:17:15 PM 54.9018 10.1805 53° Northeast  Level Estimated
Sat 12:18:15 PM 54.9782 10.3594 53° Northeast  Level Estimated
Sat 12:19:15 PM 55.0542 10.5389 54° Northeast  Level Estimated
Sat 12:20:15 PM 55.1301 10.7191 54° Northeast  Level Estimated
Sat 12:21:15 PM 55.2056 10.8999 54° Northeast  Level Estimated
Sat 12:22:15 PM 55.2809 11.0815 54° Northeast  Level Estimated
Sat 12:23:15 PM 55.3559 11.2637 54° Northeast  Level Estimated
Sat 12:24:15 PM 55.4307 11.4467 54° Northeast  Level Estimated
Sat 12:25:15 PM 55.5051 11.6303 54° Northeast  Level Estimated
Sat 12:26:15 PM 55.5793 11.8146 55° Northeast  Level Estimated
Sat 12:27:15 PM 55.6533 11.9997 55° Northeast  Level Estimated
Sat 12:28:15 PM 55.7269 12.1854 55° Northeast  Level Estimated
Sat 12:29:15 PM 55.8003 12.3718 55° Northeast  Level Estimated
Sat 12:30:15 PM 55.8733 12.5589 55° Northeast  Level Estimated
Sat 12:31:15 PM 55.9461 12.7467 55° Northeast  Level Estimated
Sat 12:32:15 PM 56.0186 12.9353 56° Northeast  Level Estimated
Sat 12:33:15 PM 56.0908 13.1245 56° Northeast  Level Estimated
Sat 12:34:15 PM 56.1627 13.3145 56° Northeast  Level Estimated
Sat 12:35:15 PM 56.2344 13.5051 56° Northeast  Level Estimated
Sat 12:36:15 PM 56.3057 13.6965 56° Northeast  Level Estimated
Sat 12:37:15 PM 56.3768 13.8886 56° Northeast  Level Estimated
Sat 12:38:15 PM 56.4475 14.0814 57° Northeast  Level Estimated
Sat 12:39:15 PM 56.5179 14.2749 57° Northeast  Level Estimated
Sat 12:40:15 PM 56.5881 14.4692 57° Northeast  Level Estimated
Sat 12:41:15 PM 56.6579 14.6642 57° Northeast  Level Estimated
Sat 12:42:15 PM 56.7274 14.8598 57° Northeast  Level Estimated
Sat 12:43:15 PM 56.7966 15.0562 57° Northeast  Level Estimated
Sat 12:44:15 PM 56.8656 15.2534 58° Northeast  Level Estimated
Sat 12:45:15 PM 56.9342 15.4513 58° Northeast  Level Estimated
Sat 12:46:15 PM 57.0024 15.6498 58° Northeast  Level Estimated
Sat 12:47:15 PM 57.0765 15.8670 58° Northeast  Level Estimated
Sat 12:48:15 PM 57.1501 16.0849 58° Northeast  Level Estimated
Sat 12:49:15 PM 57.2234 16.3038 58° Northeast  Level Estimated
Sat 12:50:15 PM 57.2962 16.5235 59° Northeast  Level Estimated
Sat 12:51:15 PM 57.3687 16.7441 59° Northeast  Level Estimated
Sat 12:52:15 PM 57.4408 16.9655 59° Northeast  Level Estimated
Sat 12:53:15 PM 57.5125 17.1879 59° Northeast  Level Estimated
Sat 12:54:15 PM 57.5838 17.4111 59° Northeast  Level Estimated
Sat 12:55:15 PM 57.6548 17.6352 60° Northeast  Level Estimated
Sat 12:56:15 PM 57.7253 17.8601 60° Northeast  Level Estimated
Sat 12:57:15 PM 57.7954 18.0859 60° Northeast  Level Estimated
Sat 12:58:15 PM 57.8652 18.3126 60° Northeast  Level Estimated
Sat 12:59:15 PM 57.9345 18.5402 60° Northeast  Level Estimated
Sat 01:00:15 PM 58.0034 18.7687 60° Northeast  Level Estimated
Sat 01:01:15 PM 58.0719 18.9980 61° Northeast  Level Estimated
Sat 01:02:15 PM 58.1400 19.2282 61° Northeast  Level Estimated
Sat 01:03:15 PM 58.2076 19.4593 61° Northeast  Level Estimated
Sat 01:04:15 PM 58.2749 19.6913 61° Northeast  Level Estimated
Sat 01:05:15 PM 58.3417 19.9242 61° Northeast  Level Estimated
Sat 01:06:15 PM 58.4081 20.1579 62° Northeast  Level Estimated
Sat 01:07:15 PM 58.4741 20.3925 62° Northeast  Level Estimated
Sat 01:08:15 PM 58.5397 20.6280 62° Northeast  Level Estimated
Sat 01:09:15 PM 58.6048 20.8644 62° Northeast  Level Estimated
Sat 01:10:15 PM 58.6695 21.1017 62° Northeast  Level Estimated
Sat 01:11:15 PM 58.7337 21.3398 63° Northeast  Level Estimated
Sat 01:12:15 PM 58.7975 21.5788 63° Northeast  Level Estimated
Sat 01:13:15 PM 58.8609 21.8187 63° Northeast  Level Estimated
Sat 01:14:15 PM 58.9238 22.0595 63° Northeast  Level Estimated
Sat 01:15:15 PM 58.9862 22.3011 63° Northeast  Level Estimated
Sat 01:16:15 PM 59.0482 22.5436 64° Northeast  Level Estimated
Sat 01:17:15 PM 59.1098 22.7870 64° Northeast  Level Estimated
Sat 01:18:15 PM 59.1709 23.0313 64° Northeast  Level Estimated
Sat 01:19:15 PM 59.2315 23.2764 64° Northeast  Level Estimated
Sat 01:20:15 PM 59.2917 23.5224 65° Northeast  Level Estimated
Sat 01:21:15 PM 59.3514 23.7693 65° Northeast  Level Estimated
Sat 01:22:15 PM 59.4107 24.0170 65° Northeast  Level Estimated
Sat 01:23:15 PM 59.4694 24.2656 65° Northeast  Level Estimated
Sat 01:24:15 PM 59.5277 24.5151 65° Northeast  Level Estimated
Sat 01:25:15 PM 59.5856 24.7654 66° East  Level Estimated
Sat 01:26:15 PM 59.6429 25.0166 66° East  Level Estimated
Sat 01:27:15 PM 59.6998 25.2686 66° East  Level Estimated
Sat 01:28:15 PM 59.7561 25.5215 66° East  Level Estimated
Sat 01:29:15 PM 59.8120 25.7753 66° East  Level Estimated
Sat 01:30:15 PM 59.8674 26.0299 67° East  Level Estimated
Sat 01:31:15 PM 59.9223 26.2853 67° East  Level Estimated
Sat 01:32:15 PM 59.9767 26.5416 67° East  Level Estimated
Sat 01:33:15 PM 60.0307 26.7987 67° East  Level Estimated
Sat 01:34:15 PM 60.0841 27.0567 68° East  Level Estimated
Sat 01:35:15 PM 60.1370 27.3155 68° East  Level Estimated
Sat 01:36:15 PM 60.1894 27.5751 68° East  Level Estimated
Sat 01:37:15 PM 60.2413 27.8355 68° East  Level Estimated
Sat 01:38:15 PM 60.2926 28.0968 68° East  Level Estimated
Sat 01:39:15 PM 60.3435 28.3589 69° East  Level Estimated
Sat 01:40:15 PM 60.3939 28.6218 69° East  Level Estimated
Sat 01:41:15 PM 60.4437 28.8855 69° East  Level Estimated
Sat 01:42:15 PM 60.4930 29.1500 69° East  Level Estimated
Sat 01:43:15 PM 60.5418 29.4153 70° East  Level Estimated
Sat 01:44:15 PM 60.5900 29.6815 70° East  Level Estimated
Sat 01:45:15 PM 60.6377 29.9484 70° East  Level Estimated
Sat 01:46:15 PM 60.6849 30.2161 70° East  Level Estimated
Sat 01:47:15 PM 60.7316 30.4846 71° East  Level Estimated
Sat 01:48:15 PM 60.7777 30.7538 71° East  Level Estimated
Sat 01:49:15 PM 60.8233 31.0238 71° East  Level Estimated
Sat 01:50:15 PM 60.8683 31.2946 71° East  Level Estimated
Sat 01:51:15 PM 60.9128 31.5662 72° East  Level Estimated
Sat 01:52:15 PM 60.9568 31.8385 72° East  Level Estimated
Sat 01:53:15 PM 61.0001 32.1115 72° East  Level Estimated
Sat 01:54:15 PM 61.0430 32.3853 72° East  Level Estimated
Sat 01:55:15 PM 61.0853 32.6599 72° East  Level Estimated
Sat 01:56:15 PM 61.1270 32.9352 73° East  Level Estimated
Sat 01:57:15 PM 61.1681 33.2111 73° East  Level Estimated
Sat 01:58:15 PM 61.2087 33.4878 73° East  Level Estimated
Sat 01:59:15 PM 61.2488 33.7653 73° East  Level Estimated
Sat 02:00:15 PM 61.2882 34.0434 74° East  Level Estimated
Sat 02:01:15 PM 61.3271 34.3222 74° East  Level Estimated
Sat 02:02:15 PM 61.3655 34.6017 74° East  Level Estimated
Sat 02:03:15 PM 61.4032 34.8819 74° East  Level Estimated
Sat 02:04:15 PM 61.4404 35.1627 75° East  Level Estimated
Sat 02:05:15 PM 61.4770 35.4442 75° East  Level Estimated
Sat 02:06:15 PM 61.5130 35.7264 75° East  Level Estimated
Sat 02:07:15 PM 61.5484 36.0092 75° East  Level Estimated
Sat 02:08:15 PM 61.5832 36.2927 76° East  Level Estimated
Sat 02:09:15 PM 61.6175 36.5768 76° East  Level Estimated
Sat 02:10:15 PM 61.6511 36.8615 76° East  Level Estimated
Sat 02:11:15 PM 61.6842 37.1468 76° East  Level Estimated
Sat 02:12:15 PM 61.7167 37.4328 77° East  Level Estimated
Sat 02:13:15 PM 61.7486 37.7193 77° East  Level Estimated
Sat 02:14:15 PM 61.7798 38.0065 77° East  Level Estimated
Sat 02:15:15 PM 61.8105 38.2942 77° East  Level Estimated
Sat 02:16:15 PM 61.8406 38.5824 78° East  Level Estimated
Sat 02:17:15 PM 61.8700 38.8713 78° East  Level Estimated
Sat 02:18:15 PM 61.8989 39.1607 78° East  Level Estimated
Sat 02:19:15 PM 61.9272 39.4506 78° East  Level Estimated
Sat 02:20:15 PM 61.9548 39.7411 79° East  Level Estimated
Sat 02:21:15 PM 61.9818 40.0320 79° East  Level Estimated
Sat 02:22:15 PM 62.0083 40.3235 79° East  Level Estimated
Sat 02:23:15 PM 62.0340 40.6155 79° East  Level Estimated
Sat 02:24:15 PM 62.0592 40.9080 80° East  Level Estimated
Sat 02:25:15 PM 62.0838 41.2010 80° East  Level Estimated
Sat 02:26:15 PM 62.1077 41.4944 80° East  Level Estimated
Sat 02:27:15 PM 62.1311 41.7883 80° East  Level Estimated
Sat 02:28:15 PM 62.1538 42.0826 81° East  Level Estimated
Sat 02:29:15 PM 62.1758 42.3774 81° East  Level Estimated
Sat 02:30:15 PM 62.1973 42.6726 81° East  Level Estimated
Sat 02:31:15 PM 62.2181 42.9682 82° East  Level Estimated
Sat 02:32:15 PM 62.2383 43.2642 82° East  Level Estimated
Sat 02:33:15 PM 62.2579 43.5606 82° East  Level Estimated
Sat 02:34:15 PM 62.2768 43.8574 82° East  Level Estimated
Sat 02:35:15 PM 62.2951 44.1545 83° East  Level Estimated
Sat 02:36:15 PM 62.3127 44.4520 83° East  Level Estimated
Sat 02:37:15 PM 62.3298 44.7499 83° East  Level Estimated
Sat 02:38:15 PM 62.3461 45.0480 83° East  Level Estimated
Sat 02:39:15 PM 62.3619 45.3465 84° East  Level Estimated
Sat 02:40:15 PM 62.3770 45.6453 84° East  Level Estimated
Sat 02:41:15 PM 62.3914 45.9444 84° East  Level Estimated
Sat 02:42:15 PM 62.4053 46.2438 84° East  Level Estimated
Sat 02:43:15 PM 62.4184 46.5434 85° East  Level Estimated
Sat 02:44:15 PM 62.4310 46.8433 85° East  Level Estimated
Sat 02:45:15 PM 62.4429 47.1435 85° East  Level Estimated
Sat 02:46:15 PM 62.4541 47.4439 86° East  Level Estimated
Sat 02:47:15 PM 62.4647 47.7445 86° East  Level Estimated
Sat 02:48:15 PM 62.4747 48.0453 86° East  Level Estimated
Sat 02:49:15 PM 62.4840 48.3463 86° East  Level Estimated
Sat 02:50:15 PM 62.4926 48.6475 87° East  Level Estimated
Sat 02:51:15 PM 62.5006 48.9488 87° East  Level Estimated
Sat 02:52:15 PM 62.5080 49.2503 87° East  Level Estimated
Sat 02:53:15 PM 62.5147 49.5520 87° East  Level Estimated
Sat 02:54:15 PM 62.5207 49.8538 88° East  Level Estimated
Sat 02:55:15 PM 62.5261 50.1557 88° East  Level Estimated
Sat 02:56:15 PM 62.5309 50.4577 88° East  Level Estimated
Sat 02:57:15 PM 62.5350 50.7598 88° East  Level Estimated
Sat 02:58:15 PM 62.5384 51.0619 89° East  Level Estimated
Sat 02:59:15 PM 62.5412 51.3642 89° East  Level Estimated
Sat 03:00:15 PM 62.5434 51.6664 89° East  Level Estimated
Sat 03:01:15 PM 62.5449 51.9688 90° East  Level Estimated
Sat 03:02:15 PM 62.5457 52.2711 90° East  Level Estimated
Sat 03:03:15 PM 62.5459 52.5734 90° East  Level Estimated
Sat 03:04:15 PM 62.5454 52.8758 90° East  Level Estimated
Sat 03:05:15 PM 62.5443 53.1781 91° East  Level Estimated
Sat 03:06:15 PM 62.5426 53.4804 91° East  Level Estimated
Sat 03:07:15 PM 62.5401 53.7827 91° East  Level Estimated
Sat 03:08:15 PM 62.5371 54.0849 91° East  Level Estimated
Sat 03:09:15 PM 62.5333 54.3870 92° East  Level Estimated
Sat 03:10:15 PM 62.5289 54.6891 92° East  Level Estimated
Sat 03:11:15 PM 62.5239 54.9910 92° East  Level Estimated
Sat 03:12:15 PM 62.5182 55.2929 92° East  Level Estimated
Sat 03:13:15 PM 62.5119 55.5946 93° East  Level Estimated
Sat 03:14:15 PM 62.5049 55.8962 93° East  Level Estimated
Sat 03:15:15 PM 62.4973 56.1976 93° East  Level Estimated
Sat 03:16:15 PM 62.4890 56.4989 94° East  Level Estimated
Sat 03:17:15 PM 62.4801 56.8000 94° East  Level Estimated
Sat 03:18:15 PM 62.4705 57.1009 94° East  Level Estimated
Sat 03:19:15 PM 62.4603 57.4017 94° East  Level Estimated
Sat 03:20:15 PM 62.4494 57.7022 95° East  Level Estimated
Sat 03:21:15 PM 62.4379 58.0025 95° East  Level Estimated
Sat 03:22:15 PM 62.4257 58.3025 95° East  Level Estimated
Sat 03:23:15 PM 62.4129 58.6023 95° East  Level Estimated
Sat 03:24:15 PM 62.3995 58.9018 96° East  Level Estimated
Sat 03:25:15 PM 62.3854 59.2011 96° East  Level Estimated
Sat 03:26:15 PM 62.3707 59.5001 96° East  Level Estimated
Sat 03:27:15 PM 62.3553 59.7987 96° East  Level Estimated
Sat 03:28:15 PM 62.3393 60.0971 97° East  Level Estimated
Sat 03:29:15 PM 62.3226 60.3951 97° East  Level Estimated
Sat 03:30:15 PM 62.3053 60.6928 97° East  Level Estimated
Sat 03:31:15 PM 62.2874 60.9902 98° East  Level Estimated
Sat 03:32:15 PM 62.2688 61.2872 98° East  Level Estimated
Sat 03:33:15 PM 62.2496 61.5838 98° East  Level Estimated
Sat 03:34:15 PM 62.2298 61.8800 98° East  Level Estimated
Sat 03:35:15 PM 62.2094 62.1759 99° East  Level Estimated
Sat 03:36:15 PM 62.1883 62.4713 99° East  Level Estimated
Sat 03:37:15 PM 62.1666 62.7663 99° East  Level Estimated
Sat 03:38:15 PM 62.1442 63.0609 99° East  Level Estimated
Sat 03:39:15 PM 62.1213 63.3550 100° East  Level Estimated
Sat 03:40:15 PM 62.0977 63.6487 100° East  Level Estimated
Sat 03:41:15 PM 62.0735 63.9420 100° East  Level Estimated
Sat 03:42:15 PM 62.0486 64.2347 100° East  Level Estimated
Sat 03:43:15 PM 62.0232 64.5270 101° East  Level Estimated
Sat 03:44:15 PM 61.9971 64.8188 101° East  Level Estimated
Sat 03:45:15 PM 61.9705 65.1101 101° East  Level Estimated
Sat 03:46:15 PM 61.9432 65.4008 101° East  Level Estimated
Sat 03:47:15 PM 61.9153 65.6910 102° East  Level Estimated
Sat 03:48:15 PM 61.8868 65.9808 102° East  Level Estimated
Sat 03:49:15 PM 61.8576 66.2699 102° East  Level Estimated
Sat 03:50:15 PM 61.8279 66.5585 102° East  Level Estimated
Sat 03:51:15 PM 61.7976 66.8465 103° East  Level Estimated
Sat 03:52:15 PM 61.7667 67.1340 103° East  Level Estimated
Sat 03:53:15 PM 61.7351 67.4209 103° East  Level Estimated
Sat 03:54:15 PM 61.7030 67.7072 103° East  Level Estimated
Sat 03:55:15 PM 61.6703 67.9929 104° East  Level Estimated
Sat 03:56:15 PM 61.6370 68.2779 104° East  Level Estimated
Sat 03:57:15 PM 61.6030 68.5624 104° East  Level Estimated
Sat 03:58:15 PM 61.5685 68.8462 104° East  Level Estimated
Sat 03:59:15 PM 61.5335 69.1294 105° East  Level Estimated
Sat 04:00:15 PM 61.4978 69.4120 105° East  Level Estimated
Sat 04:01:15 PM 61.4615 69.6939 105° East  Level Estimated
Sat 04:02:15 PM 61.4247 69.9751 105° East  Level Estimated
Sat 04:03:15 PM 61.3873 70.2557 106° East  Level Estimated
Sat 04:04:15 PM 61.3493 70.5356 106° East  Level Estimated
Sat 04:05:15 PM 61.3107 70.8148 106° East  Level Estimated
Sat 04:06:15 PM 61.2716 71.0933 106° East  Level Estimated
Sat 04:07:15 PM 61.2319 71.3711 107° East  Level Estimated
Sat 04:08:15 PM 61.1916 71.6482 107° East  Level Estimated
Sat 04:09:15 PM 61.1508 71.9246 107° East  Level Estimated
Sat 04:10:15 PM 61.1094 72.2003 107° East  Level Estimated
Sat 04:11:15 PM 61.0674 72.4753 108° East  Level Estimated
Sat 04:12:15 PM 61.0249 72.7495 108° East  Level Estimated
Sat 04:13:15 PM 60.9818 73.0230 108° East  Level Estimated
Sat 04:14:15 PM 60.9382 73.2957 108° East  Level Estimated
Sat 04:15:15 PM 60.8940 73.5677 109° East  Level Estimated
Sat 04:16:15 PM 60.8493 73.8389 109° East  Level Estimated
Sat 04:17:15 PM 60.8041 74.1094 109° East  Level Estimated
Sat 04:18:15 PM 60.7582 74.3791 109° East  Level Estimated
Sat 04:19:15 PM 60.7119 74.6480 110° East  Level Estimated
Sat 04:20:15 PM 60.6650 74.9162 110° East  Level Estimated
Sat 04:21:15 PM 60.6176 75.1836 110° East  Level Estimated
Sat 04:22:15 PM 60.5696 75.4501 110° East  Level Estimated
Sat 04:23:15 PM 60.5212 75.7159 110° East  Level Estimated
Sat 04:24:15 PM 60.4722 75.9809 111° Southeast  Level Estimated
Sat 04:25:15 PM 60.4226 76.2451 111° Southeast  Level Estimated
Sat 04:26:15 PM 60.3726 76.5085 111° Southeast  Level Estimated
Sat 04:27:15 PM 60.3220 76.7710 111° Southeast  Level Estimated
Sat 04:28:15 PM 60.2709 77.0328 112° Southeast  Level Estimated
Sat 04:29:15 PM 60.2193 77.2937 112° Southeast  Level Estimated
Sat 04:30:15 PM 60.1672 77.5538 112° Southeast  Level Estimated
Sat 04:31:15 PM 60.1146 77.8130 112° Southeast  Level Estimated
Sat 04:32:15 PM 60.0615 78.0715 113° Southeast  Level Estimated
Sat 04:33:15 PM 60.0079 78.3291 113° Southeast  Level Estimated
Sat 04:34:15 PM 59.9537 78.5859 113° Southeast  Level Estimated
Sat 04:35:15 PM 59.8991 78.8418 113° Southeast  Level Estimated
Sat 04:36:15 PM 59.8440 79.0969 113° Southeast  Level Estimated
Sat 04:37:15 PM 59.7884 79.3511 114° Southeast  Level Estimated
Sat 04:38:15 PM 59.7323 79.6045 114° Southeast  Level Estimated
Sat 04:39:15 PM 59.6757 79.8570 114° Southeast  Level Estimated
Sat 04:40:15 PM 59.6186 80.1087 114° Southeast  Level Estimated
Sat 04:41:15 PM 59.5611 80.3595 114° Southeast  Level Estimated
Sat 04:42:15 PM 59.5031 80.6095 115° Southeast  Level Estimated
Sat 04:43:15 PM 59.4446 80.8586 115° Southeast  Level Estimated
Sat 04:44:15 PM 59.3856 81.1068 115° Southeast  Level Estimated
Sat 04:45:15 PM 59.3261 81.3542 115° Southeast  Level Estimated
Sat 04:46:15 PM 59.2662 81.6007 116° Southeast  Level Estimated
Sat 04:47:15 PM 59.2059 81.8463 116° Southeast  Level Estimated
Sat 04:48:15 PM 59.1450 82.0911 116° Southeast  Level Estimated
Sat 04:49:15 PM 59.0838 82.3350 116° Southeast  Level Estimated
Sat 04:50:15 PM 59.0220 82.5780 116° Southeast  Level Estimated
Sat 04:51:15 PM 58.9598 82.8201 117° Southeast  Level Estimated
Sat 04:52:15 PM 58.8971 83.0614 117° Southeast  Level Estimated
Sat 04:53:15 PM 58.8340 83.3018 117° Southeast  Level Estimated
Sat 04:54:15 PM 58.7705 83.5413 117° Southeast  Level Estimated
Sat 04:55:15 PM 58.7065 83.7800 117° Southeast  Level Estimated
Sat 04:56:15 PM 58.6421 84.0177 118° Southeast  Level Estimated
Sat 04:57:15 PM 58.5772 84.2546 118° Southeast  Level Estimated
Sat 04:58:15 PM 58.5119 84.4906 118° Southeast  Level Estimated
Sat 04:59:15 PM 58.4462 84.7257 118° Southeast  Level Estimated
Sat 05:00:15 PM 58.3800 84.9600 118° Southeast  Level Estimated
Sat 05:01:15 PM 58.3134 85.1933 119° Southeast  Level Estimated
Sat 05:02:15 PM 58.2464 85.4258 119° Southeast  Level Estimated
Sat 05:03:15 PM 58.1790 85.6574 119° Southeast  Level Estimated
Sat 05:04:15 PM 58.1111 85.8881 119° Southeast  Level Estimated
Sat 05:05:15 PM 58.0429 86.1180 119° Southeast  Level Estimated
Sat 05:06:15 PM 57.9742 86.3469 120° Southeast  Level Estimated
Sat 05:07:15 PM 57.9051 86.5750 120° Southeast  Level Estimated
Sat 05:08:15 PM 57.8357 86.8023 120° Southeast  Level Estimated
Sat 05:09:15 PM 57.7658 87.0286 120° Southeast  Level Estimated
Sat 05:10:15 PM 57.6955 87.2540 120° Southeast  Level Estimated
Sat 05:11:15 PM 57.6248 87.4786 121° Southeast  Level Estimated
Sat 05:12:15 PM 57.5537 87.7023 121° Southeast  Level Estimated
Sat 05:13:15 PM 57.4822 87.9252 121° Southeast  Level Estimated
Sat 05:14:15 PM 57.4103 88.1471 121° Southeast  Level Estimated
Sat 05:15:15 PM 57.3380 88.3682 121° Southeast  Level Estimated
Sat 05:16:15 PM 57.2654 88.5884 122° Southeast  Level Estimated
Sat 05:17:15 PM 57.1923 88.8078 122° Southeast  Level Estimated
Sat 05:18:15 PM 57.1189 89.0263 122° Southeast  Level Estimated
Sat 05:19:15 PM 57.0451 89.2439 122° Southeast  Level Estimated
Sat 05:20:15 PM 56.9710 89.4606 122° Southeast  Level Estimated
Sat 05:21:15 PM 56.8964 89.6765 122° Southeast  Level Estimated
Sat 05:22:15 PM 56.8215 89.8915 123° Southeast  Level Estimated
Sat 05:23:15 PM 56.7462 90.1057 123° Southeast  Level Estimated
Sat 05:24:15 PM 56.6706 90.3190 123° Southeast  Level Estimated
Sat 05:25:15 PM 56.5946 90.5314 123° Southeast  Level Estimated
Sat 05:26:15 PM 56.5182 90.7430 123° Southeast  Level Estimated
Sat 05:27:15 PM 56.4415 90.9538 123° Southeast  Level Estimated
Sat 05:28:15 PM 56.3644 91.1637 124° Southeast  Level Estimated
Sat 05:29:15 PM 56.2869 91.3727 124° Southeast  Level Estimated
Sat 05:30:15 PM 56.2092 91.5809 124° Southeast  Level Estimated
Sat 05:31:15 PM 56.1310 91.7882 124° Southeast  Level Estimated
Sat 05:32:15 PM 56.0525 91.9947 124° Southeast  Level Estimated
Sat 05:33:15 PM 55.9737 92.2004 125° Southeast  Level Estimated
Sat 05:34:15 PM 55.8945 92.4052 125° Southeast  Level Estimated
Sat 05:35:15 PM 55.8150 92.6092 125° Southeast  Level Estimated
Sat 05:36:15 PM 55.7352 92.8124 125° Southeast  Level Estimated
Sat 05:37:15 PM 55.6550 93.0147 125° Southeast  Level Estimated
Sat 05:38:15 PM 55.5745 93.2162 125° Southeast  Level Estimated
Sat 05:39:15 PM 55.4937 93.4168 126° Southeast  Level Estimated
Sat 05:40:15 PM 55.4125 93.6167 126° Southeast  Level Estimated
Sat 05:41:15 PM 55.3310 93.8157 126° Southeast  Level Estimated
Sat 05:42:15 PM 55.2492 94.0139 126° Southeast  Level Estimated
Sat 05:43:15 PM 55.1671 94.2113 126° Southeast  Level Estimated
Sat 05:44:15 PM 55.0846 94.4079 126° Southeast  Level Estimated
Sat 05:45:15 PM 55.0019 94.6037 127° Southeast  Level Estimated
Sat 05:46:15 PM 54.9188 94.7986 127° Southeast  Level Estimated
Sat 05:47:15 PM 54.8354 94.9928 127° Southeast  Level Estimated
Sat 05:48:15 PM 54.7517 95.1861 127° Southeast  Level Estimated
Sat 05:49:15 PM 54.6677 95.3787 127° Southeast  Level Estimated
Sat 05:50:15 PM 54.5834 95.5704 127° Southeast  Level Estimated
Sat 05:51:15 PM 54.4988 95.7614 127° Southeast  Level Estimated
Sat 05:52:15 PM 54.4139 95.9516 128° Southeast  Level Estimated
Sat 05:53:15 PM 54.3287 96.1410 128° Southeast  Level Estimated
Sat 05:54:15 PM 54.2432 96.3296 128° Southeast  Level Estimated
Sat 05:55:15 PM 54.1574 96.5174 128° Southeast  Level Estimated
Sat 05:56:15 PM 54.0713 96.7044 128° Southeast  Level Estimated
Sat 05:57:15 PM 53.9849 96.8907 128° Southeast  Level Estimated
Sat 05:58:15 PM 53.8983 97.0762 129° Southeast  Level Estimated
Sat 05:59:15 PM 53.8113 97.2609 129° Southeast  Level Estimated
Sat 06:00:15 PM 53.7241 97.4448 129° Southeast  Level Estimated
Sat 06:01:15 PM 53.6366 97.6280 129° Southeast  Level Estimated
Sat 06:02:15 PM 53.5488 97.8105 129° Southeast  Level Estimated
Sat 06:03:15 PM 53.4607 97.9921 129° Southeast  Level Estimated
Sat 06:04:15 PM 53.3724 98.1731 129° Southeast  Level Estimated
Sat 06:05:15 PM 53.2838 98.3533 130° Southeast  Level Estimated
Sat 06:06:15 PM 53.1949 98.5327 130° Southeast  Level Estimated
Sat 06:07:15 PM 53.1057 98.7114 130° Southeast  Level Estimated
Sat 06:08:15 PM 53.0163 98.8893 130° Southeast  Level Estimated
Sat 06:09:15 PM 52.9266 99.0665 130° Southeast  Level Estimated
Sat 06:10:15 PM 52.8367 99.2430 130° Southeast  Level Estimated
Sat 06:11:15 PM 52.7465 99.4188 130° Southeast  Level Estimated
Sat 06:12:15 PM 52.6560 99.5938 131° Southeast  Level Estimated
Sat 06:13:15 PM 52.5653 99.7681 131° Southeast  Level Estimated
Sat 06:14:15 PM 52.4743 99.9416 131° Southeast  Level Estimated
Sat 06:15:15 PM 52.3831 100.1145 131° Southeast  Level Estimated
Sat 06:16:15 PM 52.2916 100.2866 131° Southeast  Level Estimated
Sat 06:17:15 PM 52.1999 100.4581 131° Southeast  Level Estimated
Sat 06:18:15 PM 52.1079 100.6288 131° Southeast  Level Estimated
Sat 06:19:15 PM 52.0157 100.7988 131° Southeast  Level Estimated
Sat 06:20:15 PM 51.9233 100.9681 132° Southeast  Level Estimated
Sat 06:21:15 PM 51.8306 101.1368 132° Southeast  Level Estimated
Sat 06:22:15 PM 51.7376 101.3047 132° Southeast  Level Estimated
Sat 06:23:15 PM 51.6445 101.4719 132° Southeast  Level Estimated
Sat 06:24:15 PM 51.5510 101.6385 132° Southeast  Level Estimated
Sat 06:25:15 PM 51.4574 101.8044 132° Southeast  Level Estimated
Sat 06:26:15 PM 51.3635 101.9695 132° Southeast  Level Estimated
Sat 06:27:15 PM 51.2694 102.1341 133° Southeast  Level Estimated
Sat 06:28:15 PM 51.1750 102.2979 133° Southeast  Level Estimated
Sat 06:29:15 PM 51.0804 102.4611 133° Southeast  Level Estimated
Sat 06:30:15 PM 50.9856 102.6236 133° Southeast  Level Estimated
Sat 06:31:15 PM 50.8906 102.7854 133° Southeast  Level Estimated
Sat 06:32:15 PM 50.7953 102.9466 133° Southeast  Level Estimated
Sat 06:33:15 PM 50.6999 103.1071 133° Southeast  Level Estimated
Sat 06:34:15 PM 50.6042 103.2670 133° Southeast  Level Estimated
Sat 06:35:15 PM 50.5083 103.4262 134° Southeast  Level Estimated
Sat 06:36:15 PM 50.4122 103.5848 134° Southeast  Level Estimated
Sat 06:37:15 PM 50.3158 103.7427 134° Southeast  Level Estimated
Sat 06:38:15 PM 50.2193 103.9000 134° Southeast  Level Estimated
Sat 06:39:15 PM 50.1225 104.0566 134° Southeast  Level Estimated
Sat 06:40:15 PM 50.0255 104.2127 134° Southeast  Level Estimated
Sat 06:41:15 PM 49.9283 104.3681 134° Southeast  Level Estimated
Sat 06:42:15 PM 49.8310 104.5228 134° Southeast  Level Estimated
Sat 06:43:15 PM 49.7334 104.6770 134° Southeast  Level Estimated
Sat 06:44:15 PM 49.6356 104.8305 135° Southeast  Level Estimated
Sat 06:45:15 PM 49.5376 104.9834 135° Southeast  Level Estimated
Sat 06:46:15 PM 49.4394 105.1357 135° Southeast  Level Estimated
Sat 06:47:15 PM 49.3408 105.2877 135° Southeast  Level Estimated
Sat 06:48:15 PM 49.2420 105.4391 135° Southeast  Level Estimated
Sat 06:49:15 PM 49.1430 105.5898 135° Southeast  Level Estimated
Sat 06:50:15 PM 49.0438 105.7400 135° Southeast  Level Estimated
Sat 06:51:15 PM 48.9444 105.8896 135° Southeast  Level Estimated
Sat 06:52:15 PM 48.8448 106.0386 136° Southeast  Level Estimated
Sat 06:53:15 PM 48.7451 106.1869 136° Southeast  Level Estimated
Sat 06:54:15 PM 48.6451 106.3347 136° Southeast  Level Estimated
Sat 06:55:15 PM 48.5450 106.4819 136° Southeast  Level Estimated
Sat 06:56:15 PM 48.4447 106.6286 136° Southeast  Level Estimated
Sat 06:57:15 PM 48.3442 106.7746 136° Southeast  Level Estimated
Sat 06:58:15 PM 48.2435 106.9201 136° Southeast  Level Estimated
Sat 06:59:15 PM 48.1426 107.0650 136° Southeast  Level Estimated
Sat 07:00:15 PM 48.0415 107.2094 136° Southeast  Level Estimated
Sat 07:01:15 PM 47.9403 107.3531 137° Southeast  Level Estimated
Sat 07:02:15 PM 47.8388 107.4963 137° Southeast  Level Estimated
Sat 07:03:15 PM 47.7373 107.6390 137° Southeast  Level Estimated
Sat 07:04:15 PM 47.6355 107.7811 137° Southeast  Level Estimated
Sat 07:05:15 PM 47.5335 107.9226 137° Southeast  Level Estimated
Sat 07:06:15 PM 47.4314 108.0636 137° Southeast  Level Estimated
Sat 07:07:15 PM 47.3291 108.2040 137° Southeast  Level Estimated
Sat 07:08:15 PM 47.2267 108.3439 137° Southeast  Level Estimated
Sat 07:09:15 PM 47.1240 108.4833 137° Southeast  Level Estimated
Sat 07:10:15 PM 47.0212 108.6221 137° Southeast  Level Estimated
Sat 07:11:15 PM 46.9182 108.7604 138° Southeast  Level Estimated
Sat 07:12:15 PM 46.8151 108.8982 138° Southeast  Level Estimated
Sat 07:13:15 PM 46.7118 109.0354 138° Southeast  Level Estimated
Sat 07:14:15 PM 46.6083 109.1721 138° Southeast  Level Estimated
Sat 07:15:15 PM 46.5047 109.3083 138° Southeast  Level Estimated
Sat 07:16:15 PM 46.4009 109.4439 138° Southeast  Level Estimated
Sat 07:17:15 PM 46.2970 109.5791 138° Southeast  Level Estimated
Sat 07:18:15 PM 46.1928 109.7137 138° Southeast  Level Estimated
Sat 07:19:15 PM 46.0886 109.8479 138° Southeast  Level Estimated
Sat 07:20:15 PM 45.9842 109.9815 138° Southeast  Level Estimated
Sat 07:21:15 PM 45.8796 110.1146 139° Southeast  Level Estimated
Sat 07:22:15 PM 45.7749 110.2472 139° Southeast  Level Estimated
Sat 07:23:15 PM 45.6700 110.3793 139° Southeast  Level Estimated
Sat 07:24:15 PM 45.5649 110.5110 139° Southeast  Level Estimated
Sat 07:25:15 PM 45.4598 110.6421 139° Southeast  Level Estimated
Sat 07:26:15 PM 45.3544 110.7727 139° Southeast  Level Estimated
Sat 07:27:15 PM 45.2489 110.9029 139° Southeast  Level Estimated
Sat 07:28:15 PM 45.1433 111.0326 139° Southeast  Level Estimated
Sat 07:29:15 PM 45.0375 111.1618 139° Southeast  Level Estimated
Sat 07:30:15 PM 44.9316 111.2905 139° Southeast  Level Estimated
Sat 07:31:15 PM 44.8255 111.4187 139° Southeast  Level Estimated
Sat 07:32:15 PM 44.7193 111.5465 140° Southeast  Level Estimated
Sat 07:33:15 PM 44.6130 111.6738 140° Southeast  Level Estimated
Sat 07:34:15 PM 44.5065 111.8007 140° Southeast  Level Estimated
Sat 07:35:15 PM 44.3999 111.9270 140° Southeast  Level Estimated
Sat 07:36:15 PM 44.2931 112.0529 140° Southeast  Level Estimated
Sat 07:37:15 PM 44.1862 112.1784 140° Southeast  Level Estimated
Sat 07:38:15 PM 44.0791 112.3034 140° Southeast  Level Estimated
Sat 07:39:15 PM 43.9720 112.4280 140° Southeast  Level Estimated
Sat 07:40:15 PM 43.8646 112.5521 140° Southeast  Level Estimated
Sat 07:41:15 PM 43.7572 112.6757 140° Southeast  Level Estimated
Sat 07:42:15 PM 43.6496 112.7989 140° Southeast  Level Estimated
Sat 07:43:15 PM 43.5419 112.9217 141° Southeast  Level Estimated
Sat 07:44:15 PM 43.4340 113.0440 141° Southeast  Level Estimated
Sat 07:45:15 PM 43.3261 113.1659 141° Southeast  Level Estimated
Sat 07:46:15 PM 43.2180 113.2874 141° Southeast  Level Estimated
Sat 07:47:15 PM 43.1097 113.4084 141° Southeast  Level Estimated
Sat 07:48:15 PM 43.0014 113.5291 141° Southeast  Level Estimated
Sat 07:49:15 PM 42.8929 113.6492 141° Southeast  Level Estimated
Sat 07:50:15 PM 42.7843 113.7690 141° Southeast  Level Estimated
Sat 07:51:15 PM 42.6755 113.8883 141° Southeast  Level Estimated
Sat 07:52:15 PM 42.5667 114.0073 141° Southeast  Level Estimated
Sat 07:53:15 PM 42.4577 114.1258 141° Southeast  Level Estimated
Sat 07:54:15 PM 42.3486 114.2439 141° Southeast  Level Estimated
Sat 07:55:15 PM 42.2394 114.3616 141° Southeast  Level Estimated
Sat 07:56:15 PM 42.1300 114.4789 142° Southeast  Level Estimated
Sat 07:57:15 PM 42.0206 114.5957 142° Southeast  Level Estimated
Sat 07:58:15 PM 41.9110 114.7122 142° Southeast  Level Estimated
Sat 07:59:15 PM 41.8013 114.8283 142° Southeast  Level Estimated
Sat 08:00:15 PM 41.6915 114.9440 142° Southeast  Level Estimated
Sat 08:01:15 PM 41.5815 115.0592 142° Southeast  Level Estimated
Sat 08:02:15 PM 41.4715 115.1741 142° Southeast  Level Estimated
Sat 08:03:15 PM 41.3613 115.2886 142° Southeast  Level Estimated
Sat 08:04:15 PM 41.2511 115.4028 142° Southeast  Level Estimated
Sat 08:05:15 PM 41.1407 115.5165 142° Southeast  Level Estimated
Sat 08:06:15 PM 41.0302 115.6298 142° Southeast  Level Estimated
Sat 08:07:15 PM 40.9196 115.7428 142° Southeast  Level Estimated
Sat 08:08:15 PM 40.8089 115.8554 142° Southeast  Level Estimated
Sat 08:09:15 PM 40.6980 115.9676 143° Southeast  Level Estimated
Sat 08:10:15 PM 40.5871 116.0795 143° Southeast  Level Estimated
Sat 08:11:15 PM 40.4761 116.1909 143° Southeast  Level Estimated
Sat 08:12:15 PM 40.3649 116.3020 143° Southeast  Level Estimated
Sat 08:13:15 PM 40.2537 116.4128 143° Southeast  Level Estimated
Sat 08:14:15 PM 40.1423 116.5231 143° Southeast  Level Estimated
Sat 08:15:15 PM 40.0308 116.6331 323° Northwest  Level Estimated
Sat 08:16:15 PM 40.1423 116.5231 143° Southeast  Level Estimated

Login

Don't have an account? Register now (free) for customized features, flight alerts, and more!